Akron, OH (44301)

5:54 AM EST on January 23, 2017 (GMT -0500)
Firestone Park | | Change Station
Active Advisory: Small Craft Advisory

Elev 1115 ft 41.05 °N, 81.52 °W | Updated 17 seconds ago

Light Rain
Light Rain Mist
48.0 °F
Feels Like 48 °F
N
2.0
Wind Variable Wind from NNE

Today
High -- | Low -- °F
--% Chance of Precip.
Yesterday
High -- | Low -- °F
Precip. -- in
Pressure 29.51 in
Visibility 6.0 miles
Clouds Few 900 ft
Mostly Cloudy 1300 ft
Overcast 1900 ft
Windchill 48 °F
Dew Point 46 °F
Humidity 95%
Rainfall 0.11 in
Snow Depth Not available.
7:44 AM 5:32 PM
Waning Crescent, 19% visible
SPECI KAKR 231036Z AUTO 07009KT 6SM -RA BR FEW009 BKN013 OVC019 10/08 A2951 RMK AO2 P0000 T01000078
Pressure 29.51 in
Visibility 6.0 miles
Clouds Few 900 ft
Mostly Cloudy 1300 ft
Overcast 1900 ft
Windchill 48 °F
Dew Point 46 °F
Humidity 95%
Rainfall 0.11 in
Snow Depth Not available.
7:44 AM 5:32 PM
Waning Crescent, 19% visible
SPECI KAKR 231036Z AUTO 07009KT 6SM -RA BR FEW009 BKN013 OVC019 10/08 A2951 RMK AO2 P0000 T01000078

Get Your Daily Forecast Email!

Thanks for signing up!

Be on the lookout for a verification email in your inbox.

You'll start receiving the daily forecast at 8 AM.

×

10-Day Weather Forecast

Almanac

Astronomy

Jan. 23, 2017 Rise Set
Actual Time
Civil Twilight
Nautical Twilight
Astronomical Twilight
Moon
Length of Visible Light
Length of Day
Tomorrow will be .
, % of the Moon is Illuminated

Today's Extremes

State Highs State Lows

Community

WunderPhotos

Upload Photos

1,962,540 photos uploaded!

WunderBlog® & News

Nearby

Air Quality

  Air Quality AQ Index Pollutant
Not available.

Snow Depth

Station Depth Elevation

Earthquake Activity

City Distance Mag. Time & Date
Minimum magnitude displayed is 2.5.

Coastal Water Temperatures

Place Temperature

Stations

Nearby Weather Stations

Station Location Temp. Windchill Dew Point Humidity Wind Precip. Elev Updated Type
                   

Watches & Warnings

Small Craft Advisory
Issued: 4:05 AM EST Jan. 23, 2017 – National Weather Service

... Small Craft Advisory remains in effect until 4 am EST
Tuesday...

* winds... northeast 10 to 20 knots.

* Waves... 3 to 5 feet.

Precautionary/preparedness actions...

A Small Craft Advisory is issued when waves of 4 feet or more are
expected or wind speeds reach 21 to 33 knots which may produce
hazardous conditions to small craft. Inexperienced mariners...
especially those operating smaller vessels... should stay in port
during these conditions.



Lombardy